Es ist keine erhöhte Aufmerksamkeit aufgrund des Wetters notwendig.    Es gibt keine Warnungen.
Webcam Vorhersage DWD Regenradar Wetterlage NRW Blitze Wind GFS-Modell
webcam


Kleve - Düffelward SSO more information Kleve - Düffelward SSO


Goch more information Goch


Weitere Templates dieser Seite und andere Webseiten:

Meteotemplate

Awekas - Template

weather34 - Template

Wetter im Erzgebirge


te
World Weather Websites
Bo-Rox Wetter Topsites List
 

METAR-Meldungen aus der Umgebung

   
EDLV - Goch
Aktualisierung: 03-04-2020 15:20
Nicht aktuell
Klar  
Klar  
   Wind: WNW 20.4 km/h
Wind: WNW 20.4 km/h
Temperatur: 10°C
Gefühlt: 7°C
Taupunkt: 2°C
Luftfeuchte: 58%
Luftdruck: 1016 hPa
Sichtbarkeit: More than 10 km
Bewölkung: Klar
EDLV 031320Z 30011KT 280V340 CAVOK 10/02 Q1016
EDLV - Emmerich
Aktualisierung: 03-04-2020 15:20
Nicht aktuell
Klar  
Klar  
   Wind: WNW 20.4 km/h
Wind: WNW 20.4 km/h
Temperatur: 10°C
Gefühlt: 7°C
Taupunkt: 2°C
Luftfeuchte: 58%
Luftdruck: 1016 hPa
Sichtbarkeit: More than 10 km
Bewölkung: Klar
EDLV 031320Z 30011KT 280V340 CAVOK 10/02 Q1016
EHDL - Nijmegen
Aktualisierung: 09-04-2020 14:25
Klar  
Klar  
   Wind: variiert 16.7 km/h
Wind: variiert 16.7 km/h
Temperatur: 20°C
Taupunkt: 5°C
Luftfeuchte: 38%
Luftdruck: 1026 hPa
Bewölkt: Klar
Sichtbarkeit: More than 10 km
Bewölkung: Klar
EHDL 091225Z AUTO VRB09KT 9999 NCD 20/05 Q1026 BLU
EHDL - Arnhem
Aktualisierung: 09-04-2020 14:25
Klar  
Klar  
   Wind: variiert 16.7 km/h
Wind: variiert 16.7 km/h
Temperatur: 20°C
Taupunkt: 5°C
Luftfeuchte: 38%
Luftdruck: 1026 hPa
Bewölkt: Klar
Sichtbarkeit: More than 10 km
Bewölkung: Klar
EHDL 091225Z AUTO VRB09KT 9999 NCD 20/05 Q1026 BLU
EDLV - Kalkar
Aktualisierung: 03-04-2020 15:20
Nicht aktuell
Klar  
Klar  
   Wind: WNW 20.4 km/h
Wind: WNW 20.4 km/h
Temperatur: 10°C
Gefühlt: 7°C
Taupunkt: 2°C
Luftfeuchte: 58%
Luftdruck: 1016 hPa
Sichtbarkeit: More than 10 km
Bewölkung: Klar
EDLV 031320Z 30011KT 280V340 CAVOK 10/02 Q1016
 

Script entwickelt von  Saratoga-weather.org Angepasst für das Template von  Weerstation Leuven

Sie finden Wetter-Infos dieser Station auch auf:

UK Metoffice

European Weather Network

WeatherCloud

Weather Underground

Germany Weather Network

AWEKAS

Neuwetter

Wettersektor

Von uns verwendete Ausrüstung:

Wetterstation
Davis Vantage Pro2

Wetterprogramm
Meteobridge

WetterComputer
Computer

Davis Vantage Pro2

Meteobridge

Computer